Time;durP1;ratioP1;P1;durP2;ratioP2;P2;SDS_P1;SDS_P2;PMS_P1;PMS_P2;Temp;Humidity;BMP_temperature;BMP_pressure;BME280_temperature;BME280_humidity;BME280_pressure;Samples;Min_cycle;Max_cycle;Signal;HPM_P1;HPM_P2
2023/02/22 00:00:44;;;;;;;15.77;8.03;;;2.50;67.70;;;;;;5020310;28;20476;-54
2023/02/22 00:03:14;;;;;;;11.80;7.17;;;2.50;68.00;;;;;;5020592;28;20450;-55
2023/02/22 00:05:45;;;;;;;12.30;7.77;;;2.50;68.40;;;;;;5023083;28;20463;-54
2023/02/22 00:08:12;;;;;;;16.27;8.27;;;2.40;68.20;;;;;;5023359;28;20427;-54
2023/02/22 00:10:38;;;;;;;10.53;7.00;;;2.40;68.30;;;;;;5021413;28;20492;-55
2023/02/22 00:13:07;;;;;;;12.73;8.47;;;2.40;68.50;;;;;;5022071;28;20430;-56
2023/02/22 00:15:33;;;;;;;12.07;7.43;;;2.40;68.50;;;;;;5026811;28;20601;-57
2023/02/22 00:17:59;;;;;;;12.10;7.23;;;2.30;68.80;;;;;;5030981;28;20465;-54
2023/02/22 00:20:24;;;;;;;14.23;7.40;;;2.30;69.00;;;;;;5028530;28;20450;-54
2023/02/22 00:22:50;;;;;;;12.57;7.40;;;2.30;69.80;;;;;;5030047;28;20938;-56
2023/02/22 00:25:21;;;;;;;14.20;7.90;;;2.30;69.90;;;;;;5024059;28;20200;-55
2023/02/22 00:27:50;;;;;;;14.20;7.53;;;2.30;70.10;;;;;;5027226;28;20427;-55
2023/02/22 00:30:19;;;;;;;14.80;8.43;;;2.20;70.40;;;;;;5034531;28;20447;-56
2023/02/22 00:32:45;;;;;;;14.80;8.23;;;2.20;70.80;;;;;;5045485;28;20439;-58
2023/02/22 00:35:13;;;;;;;11.97;7.33;;;2.20;71.10;;;;;;5037796;28;20453;-55
2023/02/22 00:37:40;;;;;;;12.30;6.97;;;2.10;71.50;;;;;;5032078;28;20469;-59
2023/02/22 00:40:11;;;;;;;12.53;8.07;;;2.20;72.30;;;;;;5028041;28;20500;-55
2023/02/22 00:42:37;;;;;;;10.90;7.70;;;2.10;72.40;;;;;;5026467;28;20433;-56
2023/02/22 00:45:04;;;;;;;10.87;6.87;;;2.10;72.70;;;;;;5046929;28;20508;-57
2023/02/22 00:47:30;;;;;;;14.40;7.67;;;2.10;72.80;;;;;;5043352;28;20159;-55
2023/02/22 00:49:56;;;;;;;12.10;7.37;;;2.10;73.00;;;;;;5031145;28;20465;-55
2023/02/22 00:52:22;;;;;;;11.67;7.43;;;2.10;73.50;;;;;;5024325;28;20875;-53
2023/02/22 00:54:47;;;;;;;13.30;7.43;;;2.00;73.70;;;;;;5026305;28;20180;-55
2023/02/22 00:57:13;;;;;;;12.50;8.03;;;2.00;73.60;;;;;;5028811;28;20191;-54
2023/02/22 00:59:38;;;;;;;10.90;7.47;;;2.00;73.10;;;;;;5017365;28;20251;-54
2023/02/22 01:02:04;;;;;;;13.90;7.20;;;2.00;73.20;;;;;;5018487;28;20198;-54
2023/02/22 01:04:29;;;;;;;13.27;7.70;;;2.00;73.00;;;;;;5033475;22;20226;-57
2023/02/22 01:06:55;;;;;;;9.67;6.80;;;1.90;73.70;;;;;;5026393;28;20223;-60
2023/02/22 01:09:21;;;;;;;12.93;7.17;;;1.90;74.60;;;;;;5026326;28;20176;-57
2023/02/22 01:11:54;;;;;;;10.47;7.03;;;1.90;74.70;;;;;;5027899;28;20195;-57
2023/02/22 01:14:20;;;;;;;12.13;7.10;;;1.90;74.80;;;;;;5025978;28;20431;-58
2023/02/22 01:16:45;;;;;;;13.13;7.60;;;1.90;75.20;;;;;;5026385;28;20437;-58
2023/02/22 01:19:11;;;;;;;15.40;7.80;;;1.90;75.10;;;;;;5027242;28;20440;-57
2023/02/22 01:21:39;;;;;;;11.50;7.40;;;1.80;75.50;;;;;;5024345;28;20802;-58
2023/02/22 01:24:05;;;;;;;13.33;7.57;;;1.80;75.60;;;;;;5027221;28;20656;-57
2023/02/22 01:26:30;;;;;;;10.80;7.47;;;1.80;75.50;;;;;;5025583;28;20483;-58
2023/02/22 01:28:56;;;;;;;11.70;6.93;;;1.80;75.20;;;;;;5030990;28;20195;-58
2023/02/22 01:31:22;;;;;;;11.87;7.70;;;1.80;74.80;;;;;;5024679;28;20172;-57
2023/02/22 01:33:49;;;;;;;10.97;7.20;;;1.80;74.30;;;;;;5026211;28;20184;-58
2023/02/22 01:36:15;;;;;;;11.33;7.40;;;1.70;74.30;;;;;;5025119;28;20458;-58
2023/02/22 01:38:41;;;;;;;12.40;7.00;;;1.70;75.20;;;;;;5033571;28;20447;-57
2023/02/22 01:41:07;;;;;;;10.97;7.20;;;1.70;75.30;;;;;;5026218;28;20453;-57
2023/02/22 01:43:33;;;;;;;12.57;7.20;;;1.70;75.40;;;;;;5035344;28;20224;-57
2023/02/22 01:46:05;;;;;;;12.30;7.90;;;1.70;76.00;;;;;;5027972;28;20555;-56
2023/02/22 01:48:35;;;;;;;12.83;8.30;;;1.70;76.20;;;;;;5027090;28;20176;-57
2023/02/22 01:51:10;;;;;;;16.10;7.40;;;1.70;76.60;;;;;;5022167;28;20437;-57
2023/02/22 01:54:14;;;;;;;13.93;7.37;;;1.70;77.40;;;;;;5035494;28;20424;-57
2023/02/22 01:56:46;;;;;;;12.67;6.77;;;1.70;78.70;;;;;;5034164;28;20948;-57
2023/02/22 01:59:12;;;;;;;11.30;7.07;;;1.60;79.90;;;;;;5025895;28;20438;-58
2023/02/22 02:01:41;;;;;;;12.67;7.00;;;1.60;79.90;;;;;;5022760;28;20434;-58
2023/02/22 02:04:11;;;;;;;13.13;7.40;;;1.60;79.60;;;;;;5025893;28;20179;-58
2023/02/22 02:06:38;;;;;;;9.30;7.13;;;1.60;79.80;;;;;;5024003;28;21001;-58
2023/02/22 02:09:29;;;;;;;9.67;7.00;;;1.60;80.10;;;;;;5026057;28;20433;-58
2023/02/22 02:11:56;;;;;;;12.93;7.10;;;1.60;80.50;;;;;;5023440;28;20437;-58
2023/02/22 02:14:22;;;;;;;10.60;7.27;;;1.50;81.10;;;;;;5035820;28;20442;-58
2023/02/22 02:16:50;;;;;;;12.63;7.13;;;1.50;82.10;;;;;;5024679;28;20443;-58
2023/02/22 02:19:36;;;;;;;16.13;6.93;;;1.50;82.00;;;;;;5029136;28;20458;-57
2023/02/22 02:22:20;;;;;;;11.33;6.93;;;1.50;82.60;;;;;;5034356;28;21030;-58
2023/02/22 02:25:30;;;;;;;13.33;6.70;;;1.50;82.30;;;;;;5031832;28;20465;-57
2023/02/22 02:28:23;;;;;;;9.70;6.20;;;1.40;83.40;;;;;;5022514;28;20437;-57
2023/02/22 02:30:58;;;;;;;9.47;5.70;;;1.40;83.50;;;;;;5026327;28;20435;-57
2023/02/22 02:34:02;;;;;;;10.73;6.67;;;1.40;84.10;;;;;;5027524;28;21051;-57
2023/02/22 02:36:34;;;;;;;27.40;7.53;;;1.30;84.70;;;;;;5017215;28;20518;-57
2023/02/22 02:39:18;;;;;;;11.83;6.53;;;1.30;85.40;;;;;;5026377;28;20939;-57
2023/02/22 02:41:49;;;;;;;12.20;6.60;;;1.20;85.40;;;;;;5023018;28;20441;-58
2023/02/22 02:44:34;;;;;;;21.80;6.77;;;1.20;86.10;;;;;;5025274;28;20502;-58
2023/02/22 02:47:06;;;;;;;13.67;6.80;;;1.20;86.90;;;;;;5021229;28;20476;-59
2023/02/22 02:49:48;;;;;;;10.00;6.00;;;1.20;88.00;;;;;;5019794;28;21116;-58
2023/02/22 02:52:16;;;;;;;14.13;6.73;;;1.20;88.10;;;;;;5025017;28;20433;-59
2023/02/22 02:54:44;;;;;;;13.70;6.40;;;1.10;88.30;;;;;;5026876;28;20464;-57
2023/02/22 02:57:10;;;;;;;9.27;5.90;;;1.10;90.00;;;;;;5020900;28;20430;-58
2023/02/22 02:59:37;;;;;;;10.67;6.67;;;1.10;90.30;;;;;;5030480;28;20440;-56
2023/02/22 03:02:33;;;;;;;13.20;6.47;;;1.10;90.30;;;;;;5029129;28;20186;-58
2023/02/22 03:05:34;;;;;;;10.00;6.30;;;1.10;90.30;;;;;;5039925;28;20480;-58
2023/02/22 03:08:20;;;;;;;13.47;6.53;;;1.00;90.40;;;;;;5028441;28;20475;-58
2023/02/22 03:11:02;;;;;;;12.80;6.80;;;1.00;90.80;;;;;;5028042;28;20438;-58
2023/02/22 03:13:37;;;;;;;14.20;6.80;;;1.00;90.80;;;;;;5027484;28;20423;-58
2023/02/22 03:16:20;;;;;;;13.70;6.20;;;1.00;90.80;;;;;;5021590;28;20507;-58
2023/02/22 03:19:04;;;;;;;11.07;6.23;;;1.00;90.60;;;;;;5029373;28;20437;-58
2023/02/22 03:21:51;;;;;;;10.07;6.10;;;1.00;90.30;;;;;;5026582;28;20426;-58
2023/02/22 03:24:41;;;;;;;11.63;6.37;;;1.00;90.80;;;;;;5030335;28;20436;-58
2023/02/22 03:27:42;;;;;;;9.23;5.93;;;1.00;90.30;;;;;;5033109;28;20879;-57
2023/02/22 03:30:11;;;;;;;14.13;6.60;;;0.90;89.40;;;;;;5023155;28;20438;-57
2023/02/22 03:32:42;;;;;;;9.13;6.53;;;0.90;89.90;;;;;;5030357;28;20422;-58
2023/02/22 03:35:30;;;;;;;13.33;7.40;;;0.90;89.00;;;;;;5023582;28;20488;-58
2023/02/22 03:38:01;;;;;;;7.93;5.83;;;0.90;87.20;;;;;;5031714;28;20804;-58
2023/02/22 03:40:32;;;;;;;9.43;6.13;;;0.90;86.60;;;;;;5028114;28;20435;-57
2023/02/22 03:43:09;;;;;;;21.80;7.30;;;0.90;87.30;;;;;;5033103;28;20931;-57
2023/02/22 03:45:38;;;;;;;10.30;6.77;;;0.80;86.60;;;;;;5026943;28;20559;-57
2023/02/22 03:48:09;;;;;;;8.83;6.20;;;0.80;88.50;;;;;;5025500;28;20430;-58
2023/02/22 03:50:36;;;;;;;12.10;7.00;;;0.80;89.30;;;;;;5027971;28;20521;-58
2023/02/22 03:53:03;;;;;;;9.00;6.37;;;0.80;90.10;;;;;;5032217;28;20679;-58
2023/02/22 03:55:30;;;;;;;9.83;6.43;;;0.80;90.40;;;;;;5037993;28;20461;-57
2023/02/22 03:57:59;;;;;;;15.70;7.23;;;0.70;90.20;;;;;;5030541;28;20938;-58
2023/02/22 04:00:28;;;;;;;6.90;5.40;;;0.70;90.10;;;;;;5030595;28;21221;-58
2023/02/22 04:02:54;;;;;;;9.40;6.27;;;0.70;90.20;;;;;;5026396;28;20475;-57
2023/02/22 04:05:20;;;;;;;13.00;7.23;;;0.70;90.60;;;;;;5026008;28;20482;-57
2023/02/22 04:07:45;;;;;;;11.27;7.07;;;0.70;90.80;;;;;;5028318;28;20445;-57
2023/02/22 04:10:14;;;;;;;10.97;7.07;;;0.70;91.10;;;;;;5031172;28;20991;-57
2023/02/22 04:12:39;;;;;;;14.00;6.60;;;0.70;91.50;;;;;;5027087;28;20634;-59
2023/02/22 04:15:08;;;;;;;9.80;6.40;;;0.70;91.60;;;;;;5027636;28;20475;-57
2023/02/22 04:17:34;;;;;;;13.90;6.40;;;0.70;92.00;;;;;;5029983;28;20183;-57
2023/02/22 04:19:59;;;;;;;9.13;6.00;;;0.60;91.90;;;;;;5022129;28;21040;-56
2023/02/22 04:22:25;;;;;;;12.30;6.73;;;0.60;91.80;;;;;;5034424;28;20277;-59
2023/02/22 04:24:50;;;;;;;12.20;6.20;;;0.60;92.40;;;;;;5029782;28;20287;-58
2023/02/22 04:27:16;;;;;;;9.30;5.97;;;0.60;92.90;;;;;;5024525;28;20170;-58
2023/02/22 04:29:42;;;;;;;10.17;6.37;;;0.50;93.20;;;;;;5024412;28;20174;-58
2023/02/22 04:32:07;;;;;;;9.83;5.60;;;0.50;93.80;;;;;;5026732;28;20664;-58
2023/02/22 04:34:33;;;;;;;8.33;5.43;;;0.50;94.30;;;;;;5027003;28;20200;-57
2023/02/22 04:36:59;;;;;;;9.47;5.20;;;0.50;94.50;;;;;;5025462;28;20587;-57
2023/02/22 04:39:25;;;;;;;16.50;6.03;;;0.50;94.30;;;;;;5025925;28;20183;-58
2023/02/22 04:41:51;;;;;;;13.60;5.93;;;0.40;94.80;;;;;;5027499;28;20848;-58
2023/02/22 04:44:16;;;;;;;14.60;6.77;;;0.50;95.10;;;;;;5049874;28;20166;-58
2023/02/22 04:46:42;;;;;;;10.30;5.90;;;0.50;95.80;;;;;;5028666;28;20863;-57
2023/02/22 04:49:07;;;;;;;24.23;6.93;;;0.40;95.90;;;;;;5026791;28;20222;-58
2023/02/22 04:51:34;;;;;;;18.47;7.30;;;0.40;96.20;;;;;;5018813;28;20179;-58
2023/02/22 04:54:00;;;;;;;12.77;7.37;;;0.40;95.70;;;;;;5022465;28;20277;-57
2023/02/22 04:56:26;;;;;;;11.17;6.67;;;0.40;95.70;;;;;;5020598;28;20877;-56
2023/02/22 04:58:51;;;;;;;13.43;6.80;;;0.40;95.80;;;;;;5011757;28;20668;-56
2023/02/22 05:01:17;;;;;;;17.47;6.37;;;0.40;96.10;;;;;;5008431;28;20182;-58
2023/02/22 05:03:43;;;;;;;11.20;6.10;;;0.40;95.90;;;;;;5010987;28;20183;-59
2023/02/22 05:06:08;;;;;;;9.90;6.37;;;0.40;95.80;;;;;;5016011;28;20481;-59
2023/02/22 05:08:34;;;;;;;11.37;5.70;;;0.40;96.20;;;;;;5005841;28;20276;-59
2023/02/22 05:11:00;;;;;;;15.23;6.90;;;0.40;96.50;;;;;;5016779;28;20221;-59
2023/02/22 05:13:25;;;;;;;11.50;5.90;;;0.40;96.30;;;;;;5016085;28;20218;-58
2023/02/22 05:15:52;;;;;;;13.50;6.90;;;0.40;96.20;;;;;;5023129;28;20200;-59
2023/02/22 05:18:17;;;;;;;8.30;6.03;;;0.40;95.80;;;;;;5014283;28;20901;-59
2023/02/22 05:20:43;;;;;;;13.60;6.97;;;0.30;95.80;;;;;;5022971;28;20494;-56
2023/02/22 05:23:08;;;;;;;9.80;6.17;;;0.30;96.20;;;;;;5031844;28;20169;-57
2023/02/22 05:25:34;;;;;;;10.40;6.70;;;0.30;96.70;;;;;;5010687;28;20284;-59
2023/02/22 05:28:04;;;;;;;10.67;6.30;;;0.30;96.60;;;;;;5021673;28;20550;-60
2023/02/22 05:30:35;;;;;;;9.63;5.90;;;0.30;97.30;;;;;;5018619;28;20215;-59
2023/02/22 05:33:01;;;;;;;11.40;6.10;;;0.20;97.80;;;;;;5022631;28;20432;-60
2023/02/22 05:35:27;;;;;;;9.70;6.03;;;0.20;96.80;;;;;;5016102;28;20468;-59
2023/02/22 05:37:54;;;;;;;10.87;6.40;;;0.20;96.00;;;;;;5022702;28;20440;-58
2023/02/22 05:40:22;;;;;;;10.63;6.53;;;0.20;95.60;;;;;;5020672;28;20443;-58
2023/02/22 05:42:49;;;;;;;14.10;6.73;;;0.20;95.70;;;;;;5012813;28;20434;-59
2023/02/22 05:45:16;;;;;;;11.40;6.93;;;0.20;96.30;;;;;;5013199;28;20557;-59
2023/02/22 05:47:42;;;;;;;20.83;9.50;;;0.20;96.80;;;;;;5018558;28;20482;-58
2023/02/22 05:50:08;;;;;;;13.67;7.37;;;0.20;97.00;;;;;;5018863;28;20459;-58
2023/02/22 05:52:34;;;;;;;10.40;6.30;;;0.20;97.10;;;;;;5022620;28;20611;-58
2023/02/22 05:54:59;;;;;;;13.40;7.30;;;0.20;97.40;;;;;;5029408;28;20482;-59
2023/02/22 05:57:25;;;;;;;16.13;7.90;;;0.20;97.70;;;;;;5020648;28;20224;-59
2023/02/22 05:59:50;;;;;;;14.10;7.10;;;0.20;97.30;;;;;;5029579;28;20215;-59
2023/02/22 06:02:16;;;;;;;15.53;7.77;;;0.20;97.40;;;;;;5025843;28;20674;-59
2023/02/22 06:04:45;;;;;;;10.00;5.90;;;0.20;97.90;;;;;;4989150;28;1106616;-59
2023/02/22 06:07:12;;;;;;;10.93;7.03;;;0.20;98.30;;;;;;5019592;28;20178;-59
2023/02/22 06:09:37;;;;;;;15.60;7.97;;;0.20;98.10;;;;;;5029573;28;21066;-59
2023/02/22 06:12:03;;;;;;;17.73;8.07;;;0.20;98.80;;;;;;5027694;28;20433;-58
2023/02/22 06:14:29;;;;;;;12.03;7.23;;;0.20;99.10;;;;;;5023836;28;20204;-58
2023/02/22 06:16:57;;;;;;;11.53;7.17;;;0.20;99.40;;;;;;5027811;28;20970;-57
2023/02/22 06:19:23;;;;;;;18.60;7.50;;;0.20;99.00;;;;;;5021754;28;20627;-58
2023/02/22 06:21:50;;;;;;;12.53;7.93;;;0.20;98.90;;;;;;5024676;28;20518;-58
2023/02/22 06:24:16;;;;;;;8.47;6.10;;;0.20;98.40;;;;;;5030053;28;20174;-59
2023/02/22 06:26:41;;;;;;;13.53;7.03;;;0.20;97.90;;;;;;5027142;28;20440;-59
2023/02/22 06:29:08;;;;;;;14.20;8.00;;;0.20;97.60;;;;;;5030635;28;20256;-58
2023/02/22 06:31:33;;;;;;;11.53;7.10;;;0.20;97.70;;;;;;5031407;28;20176;-59
2023/02/22 06:34:00;;;;;;;12.30;6.83;;;0.10;97.80;;;;;;5030463;28;20440;-59
2023/02/22 06:36:25;;;;;;;11.63;7.30;;;0.10;98.20;;;;;;5029612;28;20221;-59
2023/02/22 06:38:51;;;;;;;17.17;7.70;;;0.20;98.70;;;;;;5033242;28;20421;-59
2023/02/22 06:41:16;;;;;;;13.93;7.27;;;0.20;98.90;;;;;;5025170;28;20833;-58
2023/02/22 06:43:42;;;;;;;19.37;7.80;;;0.20;99.00;;;;;;5028485;28;20188;-58
2023/02/22 06:46:11;;;;;;;12.90;8.10;;;0.20;99.10;;;;;;5039878;28;20217;-59
2023/02/22 06:48:39;;;;;;;15.23;8.37;;;0.20;99.40;;;;;;5028690;28;20792;-58
2023/02/22 06:51:07;;;;;;;13.30;7.90;;;0.20;99.20;;;;;;5027351;28;20440;-59
2023/02/22 06:53:33;;;;;;;21.40;10.37;;;0.20;99.10;;;;;;5030722;28;20429;-58
2023/02/22 06:55:58;;;;;;;20.17;10.10;;;0.30;99.50;;;;;;5029223;28;20812;-58
2023/02/22 06:58:24;;;;;;;17.00;8.93;;;0.30;99.10;;;;;;5037462;28;20492;-58
2023/02/22 07:00:50;;;;;;;22.23;9.77;;;0.30;98.70;;;;;;5028576;28;20194;-59
2023/02/22 07:03:16;;;;;;;16.20;8.40;;;0.30;99.90;;;;;;5030364;28;20734;-58
2023/02/22 07:05:42;;;;;;;14.23;8.40;;;0.30;99.70;;;;;;5032848;28;20220;-58
2023/02/22 07:08:07;;;;;;;11.87;7.40;;;0.30;99.90;;;;;;5034208;28;20439;-59
2023/02/22 07:10:35;;;;;;;11.87;7.20;;;0.30;99.90;;;;;;5034647;28;20182;-59
2023/02/22 07:13:01;;;;;;;14.90;8.10;;;0.30;99.70;;;;;;5030763;28;20186;-59
2023/02/22 07:15:28;;;;;;;16.40;8.40;;;0.30;99.90;;;;;;5030275;28;20489;-59
2023/02/22 07:17:54;;;;;;;23.40;8.50;;;0.30;99.90;;;;;;5030368;28;20489;-59
2023/02/22 07:20:21;;;;;;;16.03;8.17;;;0.30;99.90;;;;;;5028550;28;20580;-59
2023/02/22 07:22:50;;;;;;;15.20;7.30;;;0.30;99.90;;;;;;5029709;28;20459;-58
2023/02/22 07:25:15;;;;;;;16.10;8.47;;;0.30;99.90;;;;;;5028135;28;20475;-58
2023/02/22 07:27:42;;;;;;;15.07;7.97;;;0.40;99.90;;;;;;5027702;28;20439;-59
2023/02/22 07:30:16;;;;;;;12.47;7.43;;;0.40;99.90;;;;;;5024463;28;20182;-58
2023/02/22 07:32:42;;;;;;;12.07;6.67;;;0.50;99.90;;;;;;5028826;28;20912;-59
2023/02/22 07:35:23;;;;;;;14.43;7.83;;;0.50;99.90;;;;;;5030710;28;20467;-59
2023/02/22 07:37:49;;;;;;;16.40;7.80;;;0.60;99.90;;;;;;5026465;28;20450;-58
2023/02/22 07:40:16;;;;;;;19.17;7.50;;;0.60;99.90;;;;;;5031002;28;20430;-59
2023/02/22 07:42:53;;;;;;;13.83;8.53;;;0.60;99.90;;;;;;5020045;28;20236;-59
2023/02/22 07:45:20;;;;;;;15.43;8.20;;;0.70;99.90;;;;;;5025022;28;20898;-59
2023/02/22 07:47:46;;;;;;;17.77;7.70;;;0.80;99.90;;;;;;5026820;28;20486;-58
2023/02/22 07:50:14;;;;;;;22.93;8.37;;;0.80;99.90;;;;;;5028816;28;20909;-59
2023/02/22 07:52:39;;;;;;;12.03;7.60;;;0.90;99.90;;;;;;5028380;28;20503;-59
2023/02/22 07:55:08;;;;;;;15.47;8.67;;;0.90;99.90;;;;;;5025398;28;20973;-57
2023/02/22 07:57:33;;;;;;;13.93;7.10;;;1.00;99.90;;;;;;5034952;28;20186;-59
2023/02/22 07:59:59;;;;;;;11.93;7.97;;;1.00;99.90;;;;;;5027563;28;20436;-58
2023/02/22 08:02:25;;;;;;;11.10;7.23;;;1.00;99.90;;;;;;5022525;28;20209;-58
2023/02/22 08:04:50;;;;;;;14.00;8.07;;;1.10;99.90;;;;;;5035607;28;20222;-59
2023/02/22 08:07:16;;;;;;;12.03;7.63;;;1.10;99.90;;;;;;5028060;28;20426;-59
2023/02/22 08:09:42;;;;;;;11.57;7.60;;;1.20;99.90;;;;;;5031020;28;20199;-58
2023/02/22 08:12:07;;;;;;;14.20;6.87;;;1.20;99.90;;;;;;5027937;28;20683;-59
2023/02/22 08:14:33;;;;;;;13.80;7.40;;;1.30;99.90;;;;;;5030079;28;20214;-58
2023/02/22 08:16:58;;;;;;;9.70;6.90;;;1.40;99.90;;;;;;5028704;28;20218;-59
2023/02/22 08:19:24;;;;;;;15.93;8.70;;;1.40;99.90;;;;;;5028506;28;20226;-59
2023/02/22 08:21:50;;;;;;;19.70;8.80;;;1.50;99.90;;;;;;5027032;28;20179;-58
2023/02/22 08:24:15;;;;;;;12.50;7.60;;;1.60;99.90;;;;;;5031262;28;20171;-59
2023/02/22 08:26:46;;;;;;;17.00;8.80;;;1.70;99.90;;;;;;5018824;28;20440;-59
2023/02/22 08:29:13;;;;;;;14.50;8.30;;;1.80;99.90;;;;;;5029034;28;20200;-58
2023/02/22 08:31:39;;;;;;;15.13;7.80;;;2.00;99.90;;;;;;5028704;28;20925;-59
2023/02/22 08:34:04;;;;;;;12.90;7.10;;;2.00;99.90;;;;;;5033103;28;20510;-59
2023/02/22 08:36:31;;;;;;;16.43;7.47;;;2.10;99.90;;;;;;5030026;28;20541;-59
2023/02/22 08:38:57;;;;;;;15.60;7.67;;;2.30;99.90;;;;;;5015797;28;20181;-59
2023/02/22 08:41:23;;;;;;;15.13;6.70;;;2.50;99.90;;;;;;5011052;28;20530;-59
2023/02/22 08:43:48;;;;;;;21.70;6.37;;;2.60;99.90;;;;;;5038402;28;20212;-59
2023/02/22 08:46:16;;;;;;;9.10;6.00;;;2.80;99.20;;;;;;5029116;28;20261;-59
2023/02/22 08:49:00;;;;;;;9.47;6.20;;;2.90;99.50;;;;;;5026993;28;20663;-59
2023/02/22 08:51:26;;;;;;;8.47;5.80;;;3.00;99.60;;;;;;5033571;28;20411;-58
2023/02/22 08:53:52;;;;;;;9.57;5.67;;;3.20;99.90;;;;;;5025774;28;20439;-59
2023/02/22 08:56:18;;;;;;;8.50;5.70;;;3.30;99.90;;;;;;5030271;28;20484;-59
2023/02/22 08:58:44;;;;;;;8.87;5.97;;;3.40;99.90;;;;;;5026439;28;20434;-59
2023/02/22 09:01:09;;;;;;;11.30;5.73;;;3.50;99.70;;;;;;5024854;28;20435;-59
2023/02/22 09:03:35;;;;;;;8.67;5.23;;;3.60;99.90;;;;;;5036531;28;20171;-58
2023/02/22 09:06:00;;;;;;;5.80;4.03;;;3.80;99.90;;;;;;5028690;28;20224;-59
2023/02/22 09:08:26;;;;;;;11.13;4.60;;;4.00;99.00;;;;;;5016142;28;20179;-59
2023/02/22 09:10:52;;;;;;;9.83;5.00;;;4.10;98.90;;;;;;5022315;28;20187;-59
2023/02/22 09:13:18;;;;;;;7.80;4.70;;;4.20;99.30;;;;;;5024496;28;20254;-60
2023/02/22 09:15:43;;;;;;;5.70;4.50;;;4.40;98.90;;;;;;5017621;28;20200;-59
2023/02/22 09:18:11;;;;;;;7.87;4.63;;;4.60;98.50;;;;;;5011702;28;20180;-59
2023/02/22 09:20:37;;;;;;;12.00;6.00;;;4.70;99.10;;;;;;5019768;28;20675;-59
2023/02/22 09:23:04;;;;;;;12.80;5.20;;;4.90;99.20;;;;;;5019580;28;20438;-59
2023/02/22 09:25:30;;;;;;;11.83;6.60;;;5.10;99.90;;;;;;5017421;28;20691;-59
2023/02/22 09:27:56;;;;;;;9.90;6.63;;;5.30;99.50;;;;;;5018872;28;20438;-59
2023/02/22 09:30:32;;;;;;;12.20;6.13;;;5.50;98.10;;;;;;5022422;28;20983;-59
2023/02/22 09:33:00;;;;;;;12.10;6.33;;;5.60;96.20;;;;;;5023122;28;20525;-61
2023/02/22 09:35:26;;;;;;;11.17;6.47;;;5.80;96.10;;;;;;5017916;28;20459;-59
2023/02/22 09:37:57;;;;;;;14.97;7.07;;;6.00;95.30;;;;;;5017788;28;20437;-60
2023/02/22 09:40:28;;;;;;;14.30;6.07;;;6.20;95.60;;;;;;5016840;28;20647;-59
2023/02/22 09:43:03;;;;;;;9.87;5.80;;;6.40;95.00;;;;;;5018948;28;20430;-59
2023/02/22 09:45:37;;;;;;;16.73;6.20;;;6.70;92.60;;;;;;5022215;28;20450;-59
2023/02/22 09:48:06;;;;;;;10.87;6.90;;;6.90;90.00;;;;;;5018374;28;20978;-59
2023/02/22 09:50:36;;;;;;;14.83;7.43;;;7.10;90.20;;;;;;5013370;28;20439;-60
2023/02/22 09:53:06;;;;;;;15.40;9.20;;;7.30;86.20;;;;;;5027708;28;20438;-58
2023/02/22 09:55:42;;;;;;;17.60;8.97;;;7.50;86.30;;;;;;5021205;28;20458;-59
2023/02/22 09:58:26;;;;;;;14.90;9.10;;;7.70;85.40;;;;;;5021166;28;21079;-59
2023/02/22 10:00:59;;;;;;;17.73;10.13;;;8.00;82.60;;;;;;5013031;28;20458;-59
2023/02/22 10:03:49;;;;;;;29.63;10.47;;;8.20;80.20;;;;;;5013669;28;21085;-60
2023/02/22 10:06:20;;;;;;;23.10;10.07;;;8.50;76.80;;;;;;5017044;28;20532;-59
2023/02/22 10:08:48;;;;;;;21.03;11.93;;;8.70;73.90;;;;;;5021596;28;20929;-59
2023/02/22 10:11:26;;;;;;;19.80;11.80;;;8.90;72.00;;;;;;5024308;28;20525;-59
2023/02/22 10:14:19;;;;;;;19.70;11.33;;;9.10;70.20;;;;;;5020052;28;20462;-60
2023/02/22 10:16:51;;;;;;;25.33;12.33;;;9.30;68.80;;;;;;5024894;28;20462;-59
2023/02/22 10:19:27;;;;;;;23.00;12.70;;;9.50;67.80;;;;;;5025434;28;20426;-59
2023/02/22 10:22:11;;;;;;;24.30;12.37;;;9.70;67.10;;;;;;5024302;28;21063;-59
2023/02/22 10:24:59;;;;;;;25.70;13.60;;;9.80;66.10;;;;;;5027163;28;20443;-60
2023/02/22 10:27:40;;;;;;;24.07;13.60;;;9.90;65.90;;;;;;5027673;28;20632;-59
2023/02/22 10:30:23;;;;;;;25.60;13.40;;;10.10;64.10;;;;;;5023271;28;20461;-59
2023/02/22 10:33:02;;;;;;;29.80;14.10;;;10.30;62.80;;;;;;5011724;28;20995;-59
2023/02/22 10:35:32;;;;;;;35.70;14.17;;;10.50;61.60;;;;;;5018045;28;20491;-59
2023/02/22 10:38:06;;;;;;;26.50;14.20;;;10.60;61.20;;;;;;5019581;28;20414;-59
2023/02/22 10:40:31;;;;;;;22.87;13.07;;;10.80;60.80;;;;;;5022210;28;20496;-59
2023/02/22 10:43:06;;;;;;;22.63;12.60;;;10.90;59.90;;;;;;5016940;28;20513;-59
2023/02/22 10:45:33;;;;;;;22.07;13.90;;;11.10;59.20;;;;;;5025680;28;20199;-59
2023/02/22 10:48:25;;;;;;;26.43;13.23;;;11.20;59.20;;;;;;5017451;28;20838;-60
2023/02/22 10:50:54;;;;;;;23.20;14.00;;;11.40;59.30;;;;;;5021594;28;21005;-59
2023/02/22 10:53:19;;;;;;;23.57;13.73;;;11.60;58.60;;;;;;5015927;28;20513;-60
2023/02/22 10:56:21;;;;;;;22.67;13.20;;;11.70;57.80;;;;;;5011661;28;20469;-60
2023/02/22 10:59:01;;;;;;;19.30;12.20;;;11.90;57.70;;;;;;5031394;28;20701;-59
2023/02/22 11:01:34;;;;;;;24.67;12.30;;;12.10;56.40;;;;;;5019460;28;20419;-59
2023/02/22 11:04:11;;;;;;;21.00;13.20;;;12.20;55.90;;;;;;5021516;28;20433;-59
2023/02/22 11:06:40;;;;;;;19.47;12.73;;;12.20;55.70;;;;;;5022150;28;20820;-59
2023/02/22 11:09:10;;;;;;;22.00;13.03;;;12.40;56.50;;;;;;5031447;28;20422;-60
2023/02/22 11:11:39;;;;;;;27.80;13.50;;;12.50;55.30;;;;;;5027341;28;20433;-60
2023/02/22 11:14:05;;;;;;;25.47;13.30;;;12.60;55.20;;;;;;5029078;28;20441;-60
2023/02/22 11:16:35;;;;;;;25.93;12.63;;;12.70;54.60;;;;;;5025957;28;20458;-59
2023/02/22 11:19:10;;;;;;;21.93;13.27;;;12.70;54.50;;;;;;5036567;28;20418;-60
2023/02/22 11:21:37;;;;;;;21.37;13.87;;;12.80;54.20;;;;;;5022377;28;20905;-60
2023/02/22 11:24:09;;;;;;;20.50;12.20;;;13.00;54.80;;;;;;5027652;28;20427;-60
2023/02/22 11:26:52;;;;;;;25.87;15.17;;;13.20;54.10;;;;;;5024276;28;20438;-60
2023/02/22 11:29:21;;;;;;;21.80;13.60;;;13.40;53.50;;;;;;5034835;28;20395;-59
2023/02/22 11:31:50;;;;;;;20.30;13.30;;;13.70;52.80;;;;;;5025262;28;20469;-60
2023/02/22 11:34:41;;;;;;;20.87;13.20;;;13.90;52.20;;;;;;5025602;28;20407;-59
2023/02/22 11:37:28;;;;;;;23.20;12.67;;;14.10;51.50;;;;;;5029644;28;20461;-59
2023/02/22 11:40:21;;;;;;;23.17;13.13;;;14.20;51.30;;;;;;5046496;28;20409;-59
2023/02/22 11:42:48;;;;;;;18.97;11.83;;;14.50;50.80;;;;;;5025819;28;20419;-60
2023/02/22 11:45:26;;;;;;;25.13;12.03;;;14.80;50.40;;;;;;5031469;28;20426;-60
2023/02/22 11:48:03;;;;;;;21.23;12.07;;;15.00;50.00;;;;;;5026735;28;20426;-60
2023/02/22 11:50:50;;;;;;;23.00;13.67;;;15.30;49.50;;;;;;5036169;28;20426;-60
2023/02/22 11:53:20;;;;;;;20.67;12.00;;;15.40;49.20;;;;;;5023858;28;20638;-60
2023/02/22 11:55:52;;;;;;;20.60;13.27;;;15.60;48.80;;;;;;5025671;28;20452;-60
2023/02/22 11:58:29;;;;;;;24.80;12.07;;;15.70;48.10;;;;;;5031017;28;20439;-61
2023/02/22 12:01:28;;;;;;;23.70;13.60;;;16.00;47.70;;;;;;5013752;28;20431;-61
2023/02/22 12:04:14;;;;;;;18.30;12.70;;;16.50;47.30;;;;;;5007813;28;20442;-61
2023/02/22 12:06:50;;;;;;;19.17;13.10;;;17.10;46.70;;;;;;5018483;28;20444;-60
2023/02/22 12:09:23;;;;;;;19.80;11.87;;;17.70;44.70;;;;;;5022537;28;20426;-61
2023/02/22 12:12:10;;;;;;;21.97;11.60;;;18.10;44.20;;;;;;5024663;28;20457;-60
2023/02/22 12:15:12;;;;;;;17.73;12.13;;;18.20;43.30;;;;;;5028683;28;20485;-61
2023/02/22 12:17:48;;;;;;;17.80;11.90;;;18.40;43.50;;;;;;5034806;28;20433;-60
2023/02/22 12:20:23;;;;;;;21.33;12.50;;;18.90;43.00;;;;;;5020321;28;20480;-60
2023/02/22 12:23:11;;;;;;;16.10;11.03;;;19.40;41.50;;;;;;5029263;28;20430;-61
2023/02/22 12:25:57;;;;;;;19.70;10.83;;;19.70;40.70;;;;;;5021440;28;20446;-61
2023/02/22 12:28:35;;;;;;;18.47;11.63;;;19.70;40.00;;;;;;5015135;28;20434;-61
2023/02/22 12:31:05;;;;;;;14.63;11.10;;;19.70;40.50;;;;;;5023656;28;20488;-61
2023/02/22 12:34:00;;;;;;;18.77;11.57;;;19.80;39.70;;;;;;5010903;28;20435;-61
2023/02/22 12:36:45;;;;;;;16.83;11.13;;;20.10;39.60;;;;;;4999604;28;20470;-61
2023/02/22 12:39:31;;;;;;;15.37;11.03;;;20.30;38.80;;;;;;5018099;28;20427;-61
2023/02/22 12:42:00;;;;;;;16.40;11.20;;;20.40;38.40;;;;;;5017774;28;20469;-61
2023/02/22 12:44:50;;;;;;;18.70;11.20;;;20.50;38.30;;;;;;5026678;28;20973;-61
2023/02/22 12:47:22;;;;;;;14.80;11.27;;;20.10;38.40;;;;;;5023495;28;20406;-61
2023/02/22 12:50:04;;;;;;;21.23;11.43;;;19.50;38.90;;;;;;5026311;28;20997;-60
2023/02/22 12:52:44;;;;;;;21.90;12.20;;;18.60;40.20;;;;;;5020658;28;20430;-61
2023/02/22 12:55:24;;;;;;;20.20;13.10;;;17.40;42.20;;;;;;5015487;28;20466;-60
2023/02/22 12:57:58;;;;;;;18.90;13.17;;;16.80;43.80;;;;;;5018004;28;20435;-60
2023/02/22 13:00:37;;;;;;;18.10;12.60;;;16.40;45.00;;;;;;5018558;28;20422;-60
2023/02/22 13:03:16;;;;;;;18.83;12.87;;;16.40;45.90;;;;;;5007692;28;20944;-61